createdAt,value
2023-05-19T00:01:24.113Z,50.63
2023-05-19T00:04:12.618Z,50.64
2023-05-19T00:06:59.826Z,50.77
2023-05-19T00:09:49.992Z,50.80
2023-05-19T00:12:37.065Z,50.95
2023-05-19T00:15:23.571Z,50.90
2023-05-19T00:18:10.175Z,50.93
2023-05-19T00:20:56.909Z,50.92
2023-05-19T00:23:43.983Z,50.90
2023-05-19T00:26:30.522Z,50.94
2023-05-19T00:29:25.803Z,50.85
2023-05-19T00:32:12.157Z,50.97
2023-05-19T00:34:59.996Z,50.93
2023-05-19T00:37:46.834Z,51.10
2023-05-19T00:40:36.072Z,51.30
2023-05-19T00:43:22.185Z,51.07
2023-05-19T00:46:11.387Z,51.06
2023-05-19T00:48:57.672Z,51.17
2023-05-19T00:51:43.999Z,51.24
2023-05-19T00:54:30.368Z,51.20
2023-05-19T00:57:16.504Z,51.08
2023-05-19T01:00:04.624Z,51.13
2023-05-19T01:02:51.458Z,51.12
2023-05-19T01:05:42.518Z,51.25
2023-05-19T01:08:29.561Z,51.28
2023-05-19T01:11:16.215Z,51.20
2023-05-19T01:14:02.684Z,51.46
2023-05-19T01:17:05.626Z,51.48
2023-05-19T01:20:06.763Z,51.26
2023-05-19T01:23:15.351Z,51.38
2023-05-19T01:26:43.808Z,51.26
2023-05-19T01:29:37.026Z,51.26
2023-05-19T01:32:23.889Z,51.24
2023-05-19T01:35:10.690Z,51.18
2023-05-19T01:37:58.695Z,51.27
2023-05-19T01:40:46.329Z,51.41
2023-05-19T01:43:33.746Z,51.43
2023-05-19T01:46:20.422Z,51.35
2023-05-19T01:49:08.358Z,51.34
2023-05-19T01:51:54.506Z,51.59
2023-05-19T01:54:41.830Z,51.62
2023-05-19T01:57:46.986Z,51.63
2023-05-19T02:00:43.143Z,51.60
2023-05-19T02:03:32.550Z,51.41
2023-05-19T02:06:18.626Z,51.40
2023-05-19T02:09:35.955Z,51.26
2023-05-19T02:12:40.948Z,51.51
2023-05-19T02:15:31.252Z,51.47
2023-05-19T02:18:20.750Z,51.48
2023-05-19T02:21:16.167Z,51.48
2023-05-19T02:24:11.114Z,51.50
2023-05-19T02:26:57.703Z,51.50
2023-05-19T02:29:44.512Z,51.38
2023-05-19T02:32:31.923Z,51.34
2023-05-19T02:35:22.003Z,51.37
2023-05-19T02:38:10.651Z,51.36
2023-05-19T02:40:57.687Z,51.35
2023-05-19T02:43:46.736Z,51.53
2023-05-19T02:46:41.255Z,51.35
2023-05-19T02:49:33.709Z,51.64
2023-05-19T02:52:20.398Z,51.87
2023-05-19T02:55:07.335Z,51.75
2023-05-19T02:57:54.709Z,51.38
2023-05-19T03:00:45.621Z,51.43
2023-05-19T03:03:34.762Z,51.47
2023-05-19T03:06:24.412Z,51.63
2023-05-19T03:09:11.490Z,51.53
2023-05-19T03:12:04.053Z,51.29
2023-05-19T03:14:51.176Z,51.55
2023-05-19T03:17:45.325Z,51.47
2023-05-19T03:20:34.084Z,51.52
2023-05-19T03:23:24.472Z,51.46
2023-05-19T03:26:12.263Z,51.25
2023-05-19T03:29:00.020Z,51.56
2023-05-19T03:31:48.103Z,51.63
2023-05-19T03:34:35.726Z,51.56
2023-05-19T03:37:22.075Z,51.59
2023-05-19T03:40:09.118Z,51.77
2023-05-19T03:42:57.311Z,51.62
2023-05-19T03:45:43.758Z,51.78
2023-05-19T03:48:49.776Z,51.74
2023-05-19T03:51:48.822Z,51.76
2023-05-19T03:54:45.553Z,51.78
2023-05-19T03:57:32.312Z,51.92
2023-05-19T04:00:19.152Z,51.82
2023-05-19T04:03:05.266Z,51.50
2023-05-19T04:05:53.492Z,51.81
2023-05-19T04:08:40.306Z,51.76
2023-05-19T04:11:26.340Z,51.89
2023-05-19T04:14:12.466Z,52.05
2023-05-19T04:16:58.913Z,52.11
2023-05-19T04:19:46.970Z,51.67
2023-05-19T04:22:33.420Z,52.00
2023-05-19T04:25:20.334Z,51.83
2023-05-19T04:28:07.738Z,51.67
2023-05-19T04:30:54.934Z,51.99
2023-05-19T04:33:41.865Z,52.00
2023-05-19T04:36:28.528Z,52.14
2023-05-19T04:39:15.891Z,52.08
2023-05-19T04:42:05.228Z,52.23
2023-05-19T04:44:52.317Z,52.32
2023-05-19T04:47:42.010Z,52.23
2023-05-19T04:50:29.830Z,52.22
2023-05-19T04:53:17.044Z,52.18
2023-05-19T04:56:04.123Z,52.23
2023-05-19T04:58:54.000Z,52.37
2023-05-19T05:01:41.218Z,52.32
2023-05-19T05:04:30.272Z,52.15
2023-05-19T05:07:16.193Z,52.11
2023-05-19T05:10:02.714Z,52.16
2023-05-19T05:12:50.306Z,52.19
2023-05-19T05:15:36.848Z,52.22
2023-05-19T05:18:23.751Z,52.22
2023-05-19T05:21:10.709Z,52.25
2023-05-19T05:23:57.506Z,52.32
2023-05-19T05:26:54.762Z,52.32
2023-05-19T05:29:47.410Z,52.43
2023-05-19T05:32:35.018Z,52.12
2023-05-19T05:35:25.797Z,52.16
2023-05-19T05:38:12.707Z,52.06
2023-05-19T05:41:01.080Z,52.34
2023-05-19T05:43:47.564Z,52.21
2023-05-19T05:46:34.070Z,52.36
2023-05-19T05:49:21.203Z,52.25
2023-05-19T05:52:09.417Z,52.16
2023-05-19T05:55:02.818Z,52.35
2023-05-19T05:57:50.666Z,52.15
2023-05-19T06:00:37.985Z,52.16
2023-05-19T06:03:24.818Z,52.27
2023-05-19T06:06:14.917Z,52.44
2023-05-19T06:09:01.139Z,52.15
2023-05-19T06:11:48.311Z,52.17
2023-05-19T06:14:34.508Z,52.17
2023-05-19T06:17:34.601Z,52.36
2023-05-19T06:20:21.093Z,52.04
2023-05-19T06:23:07.488Z,52.13
2023-05-19T06:25:56.854Z,52.10
2023-05-19T06:28:43.117Z,52.10
2023-05-19T06:31:31.539Z,51.89
2023-05-19T06:34:24.281Z,52.03
2023-05-19T06:37:10.697Z,52.03
2023-05-19T06:39:57.645Z,52.02
2023-05-19T06:42:44.774Z,52.05
2023-05-19T06:45:39.528Z,51.97
2023-05-19T06:48:26.622Z,52.11
2023-05-19T06:51:13.255Z,52.01
2023-05-19T06:54:00.805Z,52.10
2023-05-19T06:56:48.684Z,52.12
2023-05-19T06:59:40.254Z,52.07
2023-05-19T11:05:45.555Z,50.82
2023-05-19T11:09:55.757Z,50.94
2023-05-19T11:21:35.813Z,50.81
2023-05-19T11:25:05.322Z,50.50
2023-05-19T12:03:12.504Z,48.59
2023-05-19T12:06:05.632Z,48.64
2023-05-19T12:20:35.636Z,48.13
2023-05-19T12:23:59.863Z,48.22
2023-05-19T12:32:02.245Z,45.64
2023-05-19T12:34:52.996Z,46.59
2023-05-19T12:37:59.523Z,46.55
2023-05-19T12:41:00.258Z,46.95
2023-05-19T12:43:47.933Z,46.97
2023-05-19T12:46:35.141Z,46.83
2023-05-19T12:49:21.780Z,47.11
2023-05-19T12:52:14.513Z,44.02
2023-05-19T12:55:06.915Z,46.68
2023-05-19T12:58:21.181Z,46.47
2023-05-19T13:01:14.445Z,46.23
2023-05-19T13:04:03.264Z,45.78
2023-05-19T13:06:51.963Z,46.18
2023-05-19T13:09:40.323Z,46.37
2023-05-19T13:12:28.036Z,46.37
2023-05-19T13:15:14.806Z,46.16
2023-05-19T13:18:13.971Z,42.24
2023-05-19T13:21:00.834Z,45.64
2023-05-19T13:24:01.544Z,46.07
2023-05-19T13:26:53.965Z,45.92
2023-05-19T13:29:41.192Z,46.29
2023-05-19T13:32:27.813Z,45.97
2023-05-19T13:35:15.382Z,45.46
2023-05-19T13:38:04.452Z,45.20
2023-05-19T13:40:58.945Z,45.12
2023-05-19T13:43:49.208Z,45.59
2023-05-19T13:47:58.047Z,45.30
2023-05-19T13:50:15.565Z,45.46
2023-05-19T13:53:08.777Z,45.36
2023-05-19T13:56:29.050Z,45.44
2023-05-19T14:02:59.731Z,44.75
2023-05-19T14:09:11.529Z,43.48
2023-05-19T14:12:41.431Z,42.66
2023-05-19T14:15:38.435Z,42.88
2023-05-19T14:18:28.399Z,42.92
2023-05-19T14:21:17.790Z,42.10
2023-05-19T14:24:04.957Z,41.95
2023-05-19T14:26:52.808Z,41.65
2023-05-19T14:29:39.613Z,40.98
2023-05-19T14:32:30.556Z,40.62
2023-05-19T14:35:17.745Z,40.96
2023-05-19T14:38:06.192Z,41.05
2023-05-19T14:40:55.629Z,40.16
2023-05-19T14:44:14.325Z,40.04
2023-05-19T14:47:02.378Z,38.96
2023-05-19T14:49:49.464Z,38.75
2023-05-19T14:52:36.591Z,38.81
2023-05-19T14:55:23.355Z,37.86
2023-05-19T14:58:27.635Z,37.45
2023-05-19T15:01:18.215Z,37.04
2023-05-19T15:04:05.059Z,36.63
2023-05-19T15:07:05.858Z,36.22
2023-05-19T15:10:02.404Z,36.03
2023-05-19T15:12:52.523Z,36.13
2023-05-19T15:15:40.035Z,36.35
2023-05-19T15:18:30.267Z,37.40
2023-05-19T15:21:19.904Z,37.82
2023-05-19T15:24:07.236Z,39.38
2023-05-19T15:32:40.309Z,38.79
2023-05-19T15:41:36.955Z,40.84
2023-05-19T16:17:28.819Z,41.68
2023-05-19T16:20:33.251Z,41.95
2023-05-19T16:23:44.249Z,41.64
2023-05-19T16:27:20.662Z,41.08
2023-05-19T20:10:56.125Z,44.29
